Time;durP1;ratioP1;P1;durP2;ratioP2;P2;SDS_P1;SDS_P2;PMS_P1;PMS_P2;Temp;Humidity;BMP_temperature;BMP_pressure;BME280_temperature;BME280_humidity;BME280_pressure;Samples;Min_cycle;Max_cycle;Signal;HPM_P1;HPM_P2
2021/12/08 00:01:38;;;;;;;8.80;2.50;;;5.90;99.90;;;;;;4888948;29;20063;-82
2021/12/08 00:04:16;;;;;;;5.38;2.65;;;7.30;99.90;;;;;;4855718;29;20056;-81
2021/12/08 00:06:50;;;;;;;6.25;2.08;;;5.80;99.90;;;;;;4862296;29;20067;-82
2021/12/08 00:09:34;;;;;;;7.18;3.20;;;5.50;99.90;;;;;;4878961;29;20049;-82
2021/12/08 00:15:24;;;;;;;17.77;3.28;;;5.80;99.90;;;;;;4849342;29;20305;-82
2021/12/08 00:17:56;;;;;;;7.47;3.03;;;5.60;99.90;;;;;;4818823;29;20918;-82
2021/12/08 00:20:29;;;;;;;4.47;2.33;;;7.00;99.90;;;;;;4862258;29;20061;-80
2021/12/08 00:22:59;;;;;;;10.50;2.30;;;5.70;99.90;;;;;;4870500;29;20056;-80
2021/12/08 00:25:28;;;;;;;12.88;3.25;;;5.70;99.90;;;;;;4854615;29;20061;-81
2021/12/08 00:27:59;;;;;;;9.73;3.53;;;6.40;99.90;;;;;;4870308;29;20499;-80
2021/12/08 00:30:29;;;;;;;7.85;3.63;;;5.80;99.90;;;;;;4860591;29;20071;-81
2021/12/08 00:32:59;;;;;;;12.32;4.00;;;5.70;99.90;;;;;;4839143;29;20071;-81
2021/12/08 00:35:28;;;;;;;14.00;2.60;;;6.10;99.90;;;;;;4853688;29;20077;-81
2021/12/08 00:37:58;;;;;;;8.45;3.25;;;5.80;99.90;;;;;;4856337;29;20053;-81
2021/12/08 00:40:30;;;;;;;9.75;2.05;;;5.80;99.90;;;;;;4850191;29;20065;-80
2021/12/08 00:42:59;;;;;;;7.90;2.10;;;5.50;99.90;;;;;;4857229;29;20064;-80
2021/12/08 00:45:29;;;;;;;17.60;3.47;;;5.90;99.90;;;;;;4869015;29;20068;-80
2021/12/08 00:48:02;;;;;;;12.02;3.00;;;5.90;99.90;;;;;;4886583;29;20057;-81
2021/12/08 00:50:34;;;;;;;4.90;2.33;;;5.90;99.90;;;;;;4873148;29;20163;-80
2021/12/08 00:53:02;;;;;;;;;;;5.90;99.90;;;;;;4875169;29;20045;-82
2021/12/08 00:55:30;;;;;;;7.45;3.63;;;5.90;99.90;;;;;;4891306;29;19928;-81
2021/12/08 00:58:13;;;;;;;16.08;3.08;;;5.90;99.90;;;;;;4875058;29;20049;-82
2021/12/08 01:00:50;;;;;;;7.90;2.50;;;5.90;99.90;;;;;;4874433;29;20139;-82
2021/12/08 01:03:22;;;;;;;9.35;2.75;;;5.90;99.90;;;;;;4889863;29;20045;-82
2021/12/08 01:05:55;;;;;;;20.85;4.28;;;6.10;99.90;;;;;;4873066;29;20060;-80
2021/12/08 01:08:27;;;;;;;12.40;4.78;;;7.40;99.90;;;;;;4871466;29;20061;-80
2021/12/08 01:10:58;;;;;;;17.27;4.22;;;5.80;99.90;;;;;;4871868;29;20053;-80
2021/12/08 01:13:38;;;;;;;;;;;;;;;;;;;;;
2021/12/08 01:16:08;;;;;;;9.70;4.75;;;6.00;99.90;;;;;;4887834;29;20096;-81
2021/12/08 01:18:38;;;;;;;;;;;5.90;99.90;;;;;;4857474;29;20059;-80
2021/12/08 01:21:09;;;;;;;15.50;3.25;;;5.80;99.90;;;;;;4888359;29;19924;-81
2021/12/08 01:23:38;;;;;;;15.35;4.18;;;5.80;99.90;;;;;;4871760;29;20050;-83
2021/12/08 01:26:08;;;;;;;8.65;3.00;;;5.90;99.90;;;;;;4871415;29;20417;-80
2021/12/08 01:28:37;;;;;;;8.60;4.70;;;5.90;99.90;;;;;;4871586;29;20057;-83
2021/12/08 01:31:10;;;;;;;13.65;3.80;;;5.90;99.90;;;;;;4856345;29;20325;-81
2021/12/08 01:33:49;;;;;;;18.10;5.32;;;6.00;99.90;;;;;;4887462;29;20049;-82
2021/12/08 01:37:12;;;;;;;13.18;4.00;;;5.90;99.90;;;;;;4834174;29;20068;-82
2021/12/08 01:39:39;;;;;;;8.23;3.10;;;5.90;99.90;;;;;;4871017;29;20060;-82
2021/12/08 01:42:15;;;;;;;12.02;6.03;;;5.90;99.90;;;;;;4855674;29;20068;-81
2021/12/08 01:47:33;;;;;;;13.63;3.50;;;5.90;99.90;;;;;;4889772;29;20505;-82
2021/12/08 01:50:19;;;;;;;;;;;;;;;;;;;;;
2021/12/08 01:53:19;;;;;;;22.60;4.38;;;5.90;99.90;;;;;;4874758;29;20064;-81
2021/12/08 01:55:53;;;;;;;15.20;5.63;;;6.90;99.90;;;;;;4891776;29;20045;-82
2021/12/08 01:58:34;;;;;;;17.08;6.82;;;6.10;99.90;;;;;;4875646;29;20055;-82
2021/12/08 02:01:08;;;;;;;13.95;5.28;;;5.90;99.90;;;;;;4841235;29;20062;-80
2021/12/08 02:03:43;;;;;;;16.60;4.25;;;5.90;99.90;;;;;;4857274;29;20490;-82
2021/12/08 02:06:32;;;;;;;8.85;4.38;;;6.00;99.90;;;;;;4882038;29;20063;-81
2021/12/08 02:09:09;;;;;;;13.75;4.22;;;5.90;99.90;;;;;;4893313;29;20051;-82
2021/12/08 02:11:51;;;;;;;14.77;4.03;;;5.90;99.90;;;;;;4856502;29;20678;-82
2021/12/08 02:14:20;;;;;;;11.13;5.22;;;5.90;99.90;;;;;;4854599;29;20063;-82
2021/12/08 02:16:57;;;;;;;6.38;2.35;;;5.90;99.90;;;;;;4890658;29;20056;-82
2021/12/08 02:19:58;;;;;;;;;;;;;;;;;;;;;
2021/12/08 02:22:46;;;;;;;8.02;2.53;;;6.00;99.90;;;;;;4878406;29;20048;-81
2021/12/08 02:25:20;;;;;;;16.42;3.70;;;6.10;99.90;;;;;;4878588;29;20053;-81
2021/12/08 02:27:50;;;;;;;14.68;4.53;;;6.20;99.90;;;;;;4877163;29;20429;-81
2021/12/08 02:30:39;;;;;;;12.18;4.68;;;6.30;99.90;;;;;;4878805;29;20053;-80
2021/12/08 02:48:18;;;;;;;4.97;1.63;;;6.40;99.90;;;;;;4874426;29;20057;-81
2021/12/08 02:50:50;;;;;;;7.95;2.75;;;6.30;99.90;;;;;;4844945;29;20055;-81
2021/12/08 02:53:39;;;;;;;4.57;2.22;;;6.30;99.90;;;;;;4888740;29;20069;-81
2021/12/08 02:56:17;;;;;;;5.65;3.00;;;6.20;99.90;;;;;;4859790;29;20093;-80
2021/12/08 02:58:47;;;;;;;12.00;2.42;;;6.20;99.90;;;;;;4858965;29;20053;-81
2021/12/08 03:01:25;;;;;;;13.53;3.50;;;6.20;99.90;;;;;;4891005;29;20052;-83
2021/12/08 03:03:54;;;;;;;12.10;2.40;;;6.20;99.90;;;;;;4859419;29;20049;-81
2021/12/08 03:06:32;;;;;;;7.63;3.00;;;5.50;99.90;;;;;;4874873;29;20077;-83
2021/12/08 03:09:02;;;;;;;19.13;4.90;;;6.40;99.90;;;;;;4861309;29;20057;-80
2021/12/08 03:11:44;;;;;;;13.25;3.50;;;6.30;99.90;;;;;;4875084;29;20052;-82
2021/12/08 03:14:15;;;;;;;24.90;3.97;;;6.10;99.90;;;;;;4859161;29;20677;-82
2021/12/08 03:16:48;;;;;;;8.37;3.60;;;6.10;99.90;;;;;;4874901;29;20052;-81
2021/12/08 03:19:22;;;;;;;7.10;2.72;;;6.10;99.90;;;;;;4859051;29;20061;-81
2021/12/08 03:21:55;;;;;;;15.65;3.60;;;6.30;99.90;;;;;;4875369;29;20064;-81
2021/12/08 03:24:32;;;;;;;13.93;3.63;;;7.00;99.90;;;;;;4874738;29;20045;-80
2021/12/08 03:30:00;;;;;;;16.50;4.38;;;6.10;99.90;;;;;;4875382;29;20059;-81
2021/12/08 03:32:37;;;;;;;15.60;3.78;;;6.10;99.90;;;;;;4875174;29;20068;-79
2021/12/08 03:35:16;;;;;;;14.48;3.53;;;7.10;99.90;;;;;;4891195;29;20073;-82
2021/12/08 03:37:50;;;;;;;10.48;4.07;;;6.10;99.90;;;;;;4876832;29;20061;-81
2021/12/08 03:40:24;;;;;;;10.88;4.28;;;6.10;99.90;;;;;;4893142;29;20072;-82
2021/12/08 03:43:07;;;;;;;15.13;3.55;;;6.00;99.90;;;;;;4891534;29;20064;-82
2021/12/08 03:45:40;;;;;;;12.15;5.07;;;6.10;99.90;;;;;;4858893;29;20053;-82
2021/12/08 03:48:23;;;;;;;13.15;2.95;;;6.20;99.90;;;;;;4861093;29;20059;-83
2021/12/08 03:50:58;;;;;;;22.57;3.57;;;6.10;99.90;;;;;;4862179;29;20056;-82
2021/12/08 03:53:31;;;;;;;7.65;2.58;;;6.20;99.90;;;;;;4877381;29;20049;-83
2021/12/08 03:56:01;;;;;;;5.32;2.13;;;6.00;99.90;;;;;;4878649;29;20067;-81
2021/12/08 03:58:31;;;;;;;13.82;3.83;;;6.00;99.90;;;;;;4863762;29;20055;-82
2021/12/08 04:01:03;;;;;;;19.20;4.32;;;6.10;99.90;;;;;;4878647;29;20048;-83
2021/12/08 04:03:36;;;;;;;9.70;3.47;;;6.10;99.90;;;;;;4893558;29;20067;-82
2021/12/08 04:06:25;;;;;;;9.18;2.97;;;7.00;99.90;;;;;;4875468;29;20067;-81
2021/12/08 04:08:56;;;;;;;12.15;3.95;;;7.00;99.90;;;;;;4859161;29;20060;-81
2021/12/08 04:11:26;;;;;;;15.68;2.40;;;6.00;99.90;;;;;;4860179;29;20057;-80
2021/12/08 04:14:05;;;;;;;6.55;1.95;;;7.30;99.90;;;;;;4859959;29;20045;-81
2021/12/08 04:16:39;;;;;;;9.25;2.92;;;4.80;99.90;;;;;;4892401;29;20041;-81
2021/12/08 04:19:14;;;;;;;12.68;4.25;;;6.10;99.90;;;;;;4844031;29;20519;-80
2021/12/08 04:21:50;;;;;;;17.27;4.07;;;6.10;99.90;;;;;;4873819;29;20063;-81
2021/12/08 04:24:18;;;;;;;11.77;4.72;;;6.10;99.90;;;;;;4874331;29;20048;-81
2021/12/08 04:27:05;;;;;;;14.38;3.38;;;4.70;99.90;;;;;;4889122;29;20045;-81
2021/12/08 04:29:40;;;;;;;16.90;5.30;;;6.20;99.90;;;;;;4858086;29;20055;-82
2021/12/08 04:32:14;;;;;;;17.10;3.55;;;6.20;99.90;;;;;;4890366;29;20065;-81
2021/12/08 04:34:56;;;;;;;10.93;3.58;;;6.30;99.90;;;;;;4890383;29;20052;-83
2021/12/08 04:37:31;;;;;;;10.80;2.85;;;6.30;99.90;;;;;;4873459;29;20057;-82
2021/12/08 04:45:42;;;;;;;17.70;4.72;;;6.30;99.90;;;;;;4890013;29;20086;-81
2021/12/08 05:06:02;;;;;;;17.55;3.40;;;6.40;99.90;;;;;;4894163;29;20053;-79
2021/12/08 05:08:40;;;;;;;15.80;4.85;;;6.40;99.90;;;;;;4893056;29;20041;-82
2021/12/08 05:11:26;;;;;;;13.85;4.40;;;5.40;99.90;;;;;;4863636;29;20064;-82
2021/12/08 05:13:59;;;;;;;11.80;2.97;;;6.60;99.90;;;;;;4854772;29;20323;-81
2021/12/08 05:16:32;;;;;;;18.75;3.20;;;6.50;99.90;;;;;;4857926;29;20063;-80
2021/12/08 05:19:09;;;;;;;;;;;6.30;99.90;;;;;;4869451;29;20041;-82
2021/12/08 05:21:56;;;;;;;9.43;2.97;;;6.20;99.90;;;;;;4880739;29;19923;-83
2021/12/08 05:24:40;;;;;;;12.23;2.88;;;6.20;99.90;;;;;;4864034;29;20407;-83
2021/12/08 05:27:20;;;;;;;20.77;5.22;;;7.50;99.90;;;;;;4881742;29;20053;-81
2021/12/08 05:30:01;;;;;;;9.35;4.88;;;6.20;99.90;;;;;;4897323;29;20049;-83
2021/12/08 05:32:31;;;;;;;10.23;4.70;;;6.20;99.90;;;;;;4882875;29;20059;-81
2021/12/08 05:35:04;;;;;;;16.15;4.10;;;6.20;99.90;;;;;;4880142;29;20388;-82
2021/12/08 05:37:35;;;;;;;8.07;2.80;;;6.20;99.90;;;;;;4864540;29;20053;-81
2021/12/08 05:40:09;;;;;;;18.98;4.10;;;6.20;99.90;;;;;;4871220;29;20050;-82
2021/12/08 05:43:00;;;;;;;12.98;3.63;;;7.10;99.90;;;;;;4861692;29;20072;-83
2021/12/08 05:45:28;;;;;;;27.08;4.05;;;6.10;99.90;;;;;;4876731;29;20068;-82
2021/12/08 05:48:00;;;;;;;;;;;6.10;99.90;;;;;;4861819;29;20064;-79
2021/12/08 05:50:47;;;;;;;12.23;3.17;;;5.60;99.90;;;;;;4890723;29;20277;-81
2021/12/08 05:53:18;;;;;;;12.55;4.90;;;5.70;99.90;;;;;;4859653;29;20065;-81
2021/12/08 05:55:47;;;;;;;;;;;5.90;99.90;;;;;;4874076;29;20052;-81
2021/12/08 05:58:18;;;;;;;8.73;3.53;;;6.00;99.90;;;;;;4871213;29;19924;-81
2021/12/08 06:00:58;;;;;;;25.00;3.65;;;6.00;99.90;;;;;;4871138;29;20063;-82
2021/12/08 06:03:27;;;;;;;20.67;3.53;;;7.50;99.90;;;;;;4875572;29;20060;-82
2021/12/08 06:06:05;;;;;;;13.23;3.05;;;5.90;99.90;;;;;;4874110;29;20580;-81
2021/12/08 06:08:38;;;;;;;15.55;4.55;;;6.00;99.90;;;;;;4843583;29;20068;-81
2021/12/08 06:11:21;;;;;;;22.98;7.65;;;5.90;99.90;;;;;;4873966;29;20053;-81
2021/12/08 06:13:50;;;;;;;14.25;4.63;;;5.90;99.90;;;;;;4890730;29;20057;-81
2021/12/08 06:16:21;;;;;;;9.88;3.03;;;5.90;99.90;;;;;;4872978;29;20053;-81
2021/12/08 06:18:52;;;;;;;14.57;4.55;;;5.90;99.90;;;;;;4877839;29;20065;-81
2021/12/08 06:21:40;;;;;;;18.08;3.35;;;6.10;99.90;;;;;;4872109;29;20064;-81
2021/12/08 06:24:12;;;;;;;24.08;3.53;;;6.60;99.90;;;;;;4869984;29;20057;-81
2021/12/08 06:26:44;;;;;;;5.45;2.90;;;6.10;99.90;;;;;;4855088;29;20061;-81
2021/12/08 06:29:17;;;;;;;9.90;3.67;;;5.80;99.90;;;;;;4856227;29;20060;-82
2021/12/08 06:32:00;;;;;;;20.50;4.25;;;5.80;99.90;;;;;;4870654;29;20598;-81
2021/12/08 06:34:34;;;;;;;24.27;5.85;;;5.80;99.90;;;;;;4841721;29;20049;-81
2021/12/08 06:37:24;;;;;;;10.77;3.53;;;5.80;99.90;;;;;;4860394;29;20056;-80
2021/12/08 06:40:17;;;;;;;6.80;2.30;;;5.80;99.90;;;;;;4858556;29;20053;-81
2021/12/08 06:42:58;;;;;;;11.27;4.35;;;5.70;99.90;;;;;;4875232;29;20068;-79
2021/12/08 06:45:36;;;;;;;11.93;4.10;;;5.80;99.90;;;;;;4860348;29;20071;-82
2021/12/08 06:48:09;;;;;;;10.48;3.88;;;7.00;99.90;;;;;;4893075;29;20059;-81
2021/12/08 06:50:52;;;;;;;24.08;3.85;;;5.80;99.90;;;;;;4877887;29;20057;-80
2021/12/08 06:53:29;;;;;;;12.20;4.57;;;5.70;99.90;;;;;;4864936;29;20072;-82
2021/12/08 06:56:12;;;;;;;15.88;3.40;;;5.80;99.90;;;;;;4877636;29;20045;-80
2021/12/08 06:58:47;;;;;;;18.35;3.58;;;5.70;99.90;;;;;;4873776;29;20053;-80
2021/12/08 07:02:06;;;;;;;12.90;3.00;;;5.80;99.90;;;;;;4875338;29;20057;-81
2021/12/08 07:04:56;;;;;;;22.23;3.30;;;5.70;99.90;;;;;;4874486;29;20057;-80
2021/12/08 07:07:29;;;;;;;4.95;2.70;;;6.00;99.90;;;;;;4858237;29;20041;-82
2021/12/08 07:10:14;;;;;;;23.25;5.10;;;5.70;99.90;;;;;;4867891;29;20060;-80
2021/12/08 07:12:54;;;;;;;19.33;4.82;;;5.70;99.90;;;;;;4887213;29;20045;-79
2021/12/08 07:15:57;;;;;;;7.00;3.42;;;5.70;99.90;;;;;;4869136;29;20061;-81
2021/12/08 07:18:38;;;;;;;13.00;6.40;;;5.70;99.90;;;;;;4873450;29;20069;-79
2021/12/08 07:21:11;;;;;;;15.65;3.67;;;5.70;99.90;;;;;;4888375;29;20618;-81
2021/12/08 07:27:01;;;;;;;16.10;3.30;;;5.70;99.90;;;;;;4889948;29;20048;-80
2021/12/08 07:33:03;;;;;;;20.95;4.85;;;5.60;99.90;;;;;;4858073;29;20053;-82
2021/12/08 07:36:07;;;;;;;20.85;3.38;;;5.60;99.90;;;;;;4869294;29;20059;-81
2021/12/08 07:38:51;;;;;;;17.65;4.07;;;5.70;99.90;;;;;;4871527;29;20041;-80
2021/12/08 07:41:33;;;;;;;12.27;4.13;;;5.70;99.90;;;;;;4859265;29;20053;-80
2021/12/08 07:44:10;;;;;;;11.05;4.57;;;5.60;99.90;;;;;;4872634;29;20057;-80
2021/12/08 07:47:02;;;;;;;6.90;3.53;;;5.60;99.90;;;;;;4839874;29;20054;-79
2021/12/08 07:49:45;;;;;;;18.23;4.18;;;5.60;99.90;;;;;;4865213;29;20049;-82
2021/12/08 07:52:49;;;;;;;16.80;4.18;;;5.70;99.90;;;;;;4873568;29;20057;-82
2021/12/08 07:55:33;;;;;;;16.63;6.70;;;4.80;99.90;;;;;;4873113;29;20050;-83
2021/12/08 07:58:06;;;;;;;19.92;5.40;;;5.70;99.90;;;;;;4842149;29;20060;-83
2021/12/08 08:00:41;;;;;;;14.93;6.03;;;5.40;99.90;;;;;;4856284;29;20057;-80
2021/12/08 08:03:16;;;;;;;20.20;4.82;;;6.40;99.90;;;;;;4860165;29;20049;-82
2021/12/08 08:05:50;;;;;;;16.23;5.30;;;5.70;99.90;;;;;;4853601;29;20123;-81
2021/12/08 08:08:25;;;;;;;14.20;4.00;;;5.80;99.90;;;;;;4856414;29;20617;-81
2021/12/08 08:11:11;;;;;;;17.13;4.55;;;5.80;99.90;;;;;;4868830;29;20048;-81
2021/12/08 08:13:39;;;;;;;17.90;3.90;;;5.80;99.90;;;;;;4873139;29;20040;-82
2021/12/08 08:16:12;;;;;;;23.13;8.23;;;6.90;99.90;;;;;;4876038;29;20049;-80
2021/12/08 08:19:06;;;;;;;13.80;4.70;;;5.80;99.90;;;;;;4861885;29;20138;-81
2021/12/08 08:21:54;;;;;;;24.35;5.50;;;5.90;99.90;;;;;;4856261;29;20049;-81
2021/12/08 08:24:32;;;;;;;21.27;5.80;;;6.10;99.90;;;;;;4874846;29;20041;-81
2021/12/08 08:27:05;;;;;;;15.27;3.88;;;6.00;99.90;;;;;;4876043;29;20645;-80
2021/12/08 08:29:37;;;;;;;19.13;4.22;;;6.00;99.90;;;;;;4875475;29;20057;-83
2021/12/08 08:32:25;;;;;;;15.18;6.93;;;6.00;99.90;;;;;;4885542;29;20067;-82
2021/12/08 08:35:25;;;;;;;14.05;3.97;;;6.00;99.90;;;;;;4851945;29;20068;-81
2021/12/08 08:37:54;;;;;;;15.43;5.18;;;5.00;99.90;;;;;;4876274;29;20076;-81
2021/12/08 08:40:31;;;;;;;22.45;4.97;;;6.10;99.90;;;;;;4846198;29;20294;-82
2021/12/08 08:43:06;;;;;;;17.80;4.15;;;6.10;99.90;;;;;;4891622;29;20067;-82
2021/12/08 08:45:44;;;;;;;32.45;6.47;;;6.20;99.90;;;;;;4860830;29;20049;-82
2021/12/08 08:48:56;;;;;;;18.23;3.67;;;5.90;99.90;;;;;;4869472;29;20056;-82
2021/12/08 08:51:36;;;;;;;22.90;5.10;;;6.20;99.90;;;;;;4894788;29;20063;-83
2021/12/08 08:54:20;;;;;;;21.83;5.35;;;6.30;99.90;;;;;;4882571;29;20049;-83
2021/12/08 08:57:03;;;;;;;51.78;6.85;;;6.30;99.90;;;;;;4893014;29;20136;-82
2021/12/08 08:59:49;;;;;;;14.95;4.03;;;6.20;99.90;;;;;;4845193;29;20061;-82
2021/12/08 09:02:29;;;;;;;16.20;5.30;;;6.40;99.90;;;;;;4845094;29;20073;-82
2021/12/08 09:05:31;;;;;;;;;;;;;;;;;;;;;
2021/12/08 09:08:20;;;;;;;16.30;5.03;;;6.70;99.90;;;;;;4886563;29;20061;-81
2021/12/08 09:11:30;;;;;;;10.95;3.47;;;6.50;99.90;;;;;;4856882;29;20053;-81
2021/12/08 09:14:42;;;;;;;17.08;4.18;;;8.40;99.90;;;;;;4861174;29;20055;-82
2021/12/08 09:17:34;;;;;;;22.77;5.45;;;6.60;99.90;;;;;;4863126;29;20059;-81
2021/12/08 09:20:22;;;;;;;12.93;4.00;;;6.80;99.90;;;;;;4875616;29;20051;-83
2021/12/08 09:23:24;;;;;;;18.23;4.85;;;7.20;99.90;;;;;;4859606;29;20061;-82
2021/12/08 09:26:08;;;;;;;20.17;4.32;;;6.30;99.90;;;;;;4859098;29;20055;-82
2021/12/08 09:28:44;;;;;;;19.92;5.35;;;6.80;99.90;;;;;;4882688;29;20061;-82
2021/12/08 09:31:37;;;;;;;15.38;5.43;;;7.20;99.90;;;;;;4887796;29;20388;-82
2021/12/08 09:34:42;;;;;;;19.70;7.13;;;7.00;99.90;;;;;;4869638;29;20060;-82
2021/12/08 09:37:20;;;;;;;26.10;4.97;;;6.90;99.90;;;;;;4874155;29;20052;-82
2021/12/08 09:40:21;;;;;;;36.13;5.97;;;7.00;99.90;;;;;;4877261;29;20067;-83
2021/12/08 09:42:54;;;;;;;13.45;5.35;;;7.00;99.90;;;;;;4872277;29;20060;-82
2021/12/08 09:45:45;;;;;;;25.77;6.68;;;7.10;99.90;;;;;;4855664;29;20054;-82
2021/12/08 09:48:43;;;;;;;16.80;4.03;;;7.10;99.90;;;;;;4873820;29;20042;-82
2021/12/08 09:51:24;;;;;;;20.77;7.13;;;7.10;99.90;;;;;;4873417;29;20063;-82
2021/12/08 09:54:21;;;;;;;16.10;3.47;;;7.10;99.90;;;;;;4861459;29;20048;-82
2021/12/08 09:56:53;;;;;;;13.73;3.50;;;7.20;99.90;;;;;;4865313;29;20059;-81
2021/12/08 09:59:33;;;;;;;20.58;5.88;;;7.20;99.90;;;;;;4851078;29;20059;-82
2021/12/08 10:02:10;;;;;;;10.52;5.15;;;7.10;99.90;;;;;;4879725;29;20041;-81
2021/12/08 10:04:54;;;;;;;19.73;3.50;;;7.20;99.90;;;;;;4894715;29;20060;-82
2021/12/08 10:07:26;;;;;;;13.73;4.05;;;6.50;99.90;;;;;;4879531;29;20053;-80
2021/12/08 10:09:56;;;;;;;15.93;4.75;;;7.50;99.90;;;;;;4874496;29;20051;-82
2021/12/08 10:12:26;;;;;;;38.15;7.80;;;7.20;99.90;;;;;;4858885;29;20056;-82
2021/12/08 10:14:57;;;;;;;27.73;5.05;;;7.20;99.90;;;;;;4866075;29;20057;-81
2021/12/08 10:17:33;;;;;;;22.27;7.35;;;7.20;99.90;;;;;;4866976;29;20045;-81
2021/12/08 10:20:14;;;;;;;19.20;5.07;;;7.30;99.90;;;;;;4875124;29;20053;-80
2021/12/08 10:22:47;;;;;;;10.98;2.65;;;7.50;99.90;;;;;;4872381;29;20048;-81
2021/12/08 10:25:21;;;;;;;16.17;5.00;;;7.30;99.90;;;;;;4890598;29;20059;-82
2021/12/08 10:28:30;;;;;;;19.85;6.32;;;7.30;99.90;;;;;;4868820;29;20052;-81
2021/12/08 10:31:13;;;;;;;19.40;4.03;;;7.40;99.90;;;;;;4891194;29;20061;-83
2021/12/08 10:36:57;;;;;;;14.63;2.92;;;7.60;99.90;;;;;;4873589;29;20057;-82
2021/12/08 10:39:45;;;;;;;;;;;;;;;;;;;;;
2021/12/08 10:42:49;;;;;;;;;;;;;;;;;;;;;
2021/12/08 10:46:08;;;;;;;26.10;5.95;;;7.70;99.90;;;;;;4865121;29;20063;-82
2021/12/08 10:55:53;;;;;;;19.65;3.55;;;8.00;99.90;;;;;;4888223;29;20052;-81
2021/12/08 10:58:37;;;;;;;24.73;5.88;;;8.00;99.90;;;;;;4871407;29;20193;-82
2021/12/08 11:01:23;;;;;;;15.68;3.72;;;6.70;99.90;;;;;;4856568;29;20053;-83
2021/12/08 11:05:01;;;;;;;15.35;3.35;;;8.10;99.90;;;;;;4836311;29;20058;-82
2021/12/08 11:12:40;;;;;;;21.15;4.28;;;8.00;99.90;;;;;;4717774;30;20455;-83
2021/12/08 11:20:29;;;;;;;18.75;4.18;;;8.10;99.90;;;;;;4685190;30;20074;-83
2021/12/08 11:28:03;;;;;;;16.08;3.70;;;7.90;99.90;;;;;;4740661;30;20059;-84
2021/12/08 11:31:36;;;;;;;13.25;3.35;;;8.10;99.90;;;;;;4768583;30;20060;-83
2021/12/08 11:35:02;;;;;;;21.08;4.30;;;8.10;99.90;;;;;;4754411;30;20064;-83
2021/12/08 11:51:12;;;;;;;23.07;4.33;;;9.80;99.90;;;;;;4622966;31;20059;-83
2021/12/08 11:55:01;;;;;;;;;;;;;;;;;;;;;
2021/12/08 11:58:38;;;;;;;;;;;;;;;;;;;;;
2021/12/08 12:15:49;;;;;;;21.55;4.07;;;9.00;99.90;;;;;;5108412;27;20395;-90
2021/12/08 12:18:23;;;;;;;11.10;4.43;;;8.80;99.90;;;;;;5076517;28;20063;-86
2021/12/08 12:21:18;;;;;;;22.83;3.80;;;8.70;99.90;;;;;;5072455;28;20059;-87
2021/12/08 12:24:14;;;;;;;26.73;7.00;;;8.70;99.90;;;;;;5088661;28;20045;-86
2021/12/08 12:27:03;;;;;;;24.67;7.38;;;8.70;99.90;;;;;;5048722;28;20040;-89
2021/12/08 12:29:56;;;;;;;20.85;6.22;;;8.70;99.90;;;;;;5071881;28;20060;-84
2021/12/08 12:32:38;;;;;;;22.67;6.82;;;8.70;99.90;;;;;;5072909;28;20045;-83
2021/12/08 12:35:21;;;;;;;17.13;4.88;;;8.60;99.90;;;;;;5069472;28;20066;-85
2021/12/08 12:38:13;;;;;;;16.33;3.80;;;8.70;99.90;;;;;;5075300;28;20048;-86
2021/12/08 12:40:52;;;;;;;21.63;5.38;;;8.70;99.90;;;;;;5059309;28;20075;-84
2021/12/08 12:43:29;;;;;;;16.13;3.58;;;8.70;99.90;;;;;;5075309;28;20053;-84
2021/12/08 12:46:14;;;;;;;18.33;3.50;;;8.60;99.90;;;;;;5071385;28;20048;-84
2021/12/08 12:48:50;;;;;;;21.02;3.58;;;8.70;99.90;;;;;;5072413;28;20045;-83
2021/12/08 12:51:23;;;;;;;22.92;5.85;;;9.20;99.90;;;;;;5073236;28;20049;-82
2021/12/08 12:53:56;;;;;;;17.83;5.15;;;8.60;99.90;;;;;;5055457;28;20064;-84
2021/12/08 12:56:29;;;;;;;14.82;4.60;;;8.60;99.90;;;;;;5052243;28;20064;-85
2021/12/08 12:59:10;;;;;;;23.80;6.53;;;8.70;99.90;;;;;;5071382;28;20052;-81
2021/12/08 13:01:44;;;;;;;21.10;4.03;;;8.70;99.90;;;;;;5076673;28;20049;-84
2021/12/08 13:04:21;;;;;;;14.00;3.00;;;9.80;99.90;;;;;;5075179;28;20045;-83
2021/12/08 13:07:04;;;;;;;15.13;4.18;;;8.70;99.90;;;;;;5075740;28;20068;-87
2021/12/08 13:09:53;;;;;;;16.58;4.95;;;8.80;99.90;;;;;;5075021;28;20074;-82
2021/12/08 13:12:42;;;;;;;16.77;4.95;;;8.80;99.90;;;;;;5074234;28;20526;-84
2021/12/08 13:15:19;;;;;;;13.82;4.38;;;8.90;99.90;;;;;;5032155;28;20056;-87
2021/12/08 13:18:02;;;;;;;17.52;6.20;;;8.90;99.90;;;;;;5053532;28;20495;-87
2021/12/08 13:20:37;;;;;;;13.38;4.85;;;8.90;99.90;;;;;;5047493;28;20044;-87
2021/12/08 13:23:08;;;;;;;20.13;5.15;;;8.90;99.90;;;;;;5057681;28;20037;-87
2021/12/08 13:26:19;;;;;;;18.10;4.53;;;8.90;99.90;;;;;;5054452;28;20045;-86
2021/12/08 13:28:44;;;;;;;17.15;3.13;;;9.00;99.90;;;;;;5053154;28;20045;-88
2021/12/08 13:34:06;;;;;;;15.18;4.68;;;9.00;99.90;;;;;;5047258;28;20076;-87
2021/12/08 13:36:47;;;;;;;25.88;5.70;;;9.00;99.90;;;;;;5054245;28;20049;-82
2021/12/08 13:39:27;;;;;;;12.73;4.60;;;9.00;99.90;;;;;;5038667;28;20599;-87
2021/12/08 13:42:26;;;;;;;34.47;6.27;;;9.10;99.90;;;;;;5051184;28;20048;-84
2021/12/08 13:45:13;;;;;;;12.32;3.55;;;9.10;99.90;;;;;;5048981;28;20306;-87
2021/12/08 13:47:44;;;;;;;6.72;3.22;;;9.20;99.90;;;;;;5053903;28;20049;-83
2021/12/08 13:50:24;;;;;;;12.50;4.07;;;9.20;99.90;;;;;;5047494;28;20052;-87
2021/12/08 13:53:08;;;;;;;9.75;3.80;;;9.20;99.60;;;;;;5041734;28;20108;-87
2021/12/08 13:55:41;;;;;;;16.40;5.43;;;9.20;99.70;;;;;;5012216;28;20048;-85
2021/12/08 13:58:14;;;;;;;12.90;4.13;;;9.20;99.80;;;;;;5051703;28;20488;-87
2021/12/08 14:00:59;;;;;;;8.77;2.22;;;9.20;99.50;;;;;;5025695;28;20055;-86
2021/12/08 14:03:54;;;;;;;11.95;3.10;;;9.20;99.60;;;;;;5050682;28;20044;-86
2021/12/08 14:06:22;;;;;;;16.70;3.35;;;9.30;99.40;;;;;;5045694;28;20057;-84
2021/12/08 14:08:51;;;;;;;17.85;4.43;;;9.20;99.60;;;;;;5054634;28;20060;-84
2021/12/08 14:11:23;;;;;;;13.80;3.42;;;9.20;99.10;;;;;;5058413;28;20644;-86
2021/12/08 14:13:53;;;;;;;12.27;3.28;;;9.20;99.30;;;;;;5021901;28;20056;-84
2021/12/08 14:16:25;;;;;;;16.33;2.72;;;9.20;98.80;;;;;;5026117;28;20440;-85
2021/12/08 14:18:55;;;;;;;17.25;4.35;;;9.20;99.10;;;;;;5042081;28;20049;-85
2021/12/08 14:21:43;;;;;;;8.45;3.30;;;9.20;99.00;;;;;;5038044;28;20064;-84
2021/12/08 14:24:27;;;;;;;14.68;3.28;;;9.20;99.10;;;;;;5056148;28;20590;-88
2021/12/08 14:26:56;;;;;;;12.98;3.35;;;9.20;99.10;;;;;;5057029;28;20045;-83
2021/12/08 14:29:25;;;;;;;12.35;3.92;;;8.40;98.80;;;;;;5055844;28;20044;-85
2021/12/08 14:31:58;;;;;;;11.25;3.05;;;9.20;99.20;;;;;;5054173;28;20056;-84
2021/12/08 14:34:34;;;;;;;18.05;4.00;;;9.20;99.20;;;;;;5042434;28;20057;-87
2021/12/08 14:37:10;;;;;;;17.40;3.75;;;9.10;99.30;;;;;;5044179;28;20045;-87
2021/12/08 14:39:45;;;;;;;15.85;4.07;;;9.20;99.40;;;;;;5042436;28;20062;-88
2021/12/08 14:42:28;;;;;;;14.38;4.50;;;9.20;99.50;;;;;;5038927;28;20057;-88
2021/12/08 14:45:07;;;;;;;14.32;4.22;;;9.10;99.60;;;;;;5054446;28;20053;-86
2021/12/08 14:47:38;;;;;;;28.73;3.78;;;9.10;99.50;;;;;;5055617;28;20056;-84
2021/12/08 14:50:10;;;;;;;16.95;3.53;;;9.10;99.50;;;;;;5046643;28;20052;-88
2021/12/08 14:52:42;;;;;;;11.93;3.80;;;9.10;99.50;;;;;;5063096;28;20042;-87
2021/12/08 14:55:21;;;;;;;19.75;5.43;;;9.00;99.60;;;;;;5050450;28;20048;-87
2021/12/08 14:57:53;;;;;;;21.92;6.18;;;10.20;99.90;;;;;;5053721;28;20045;-88
2021/12/08 15:00:29;;;;;;;18.08;6.05;;;9.00;99.90;;;;;;5027115;28;20084;-86
2021/12/08 15:03:13;;;;;;;11.32;3.42;;;8.90;99.90;;;;;;5047878;28;20049;-85
2021/12/08 15:05:47;;;;;;;12.10;3.80;;;8.90;99.90;;;;;;5037245;28;20477;-86
2021/12/08 15:08:19;;;;;;;17.88;4.85;;;8.70;99.90;;;;;;5055776;28;20049;-84
2021/12/08 15:10:55;;;;;;;24.70;3.13;;;8.80;99.90;;;;;;5047531;28;20695;-84
2021/12/08 15:13:30;;;;;;;16.65;5.28;;;8.70;99.90;;;;;;5031825;28;20936;-85
2021/12/08 15:15:58;;;;;;;12.55;3.53;;;8.60;99.90;;;;;;5044602;28;20045;-83
2021/12/08 15:18:29;;;;;;;14.20;3.42;;;8.60;99.90;;;;;;5026263;28;20060;-85
2021/12/08 15:21:11;;;;;;;25.27;5.05;;;8.50;99.90;;;;;;5032116;28;20052;-85
2021/12/08 15:23:50;;;;;;;10.43;3.42;;;8.50;99.90;;;;;;5048538;28;20037;-85
2021/12/08 15:26:25;;;;;;;17.55;5.60;;;8.50;99.90;;;;;;5031462;28;20061;-86
2021/12/08 15:28:55;;;;;;;15.10;2.65;;;8.40;99.90;;;;;;5054344;28;20071;-84
2021/12/08 15:31:38;;;;;;;16.83;5.28;;;8.40;99.90;;;;;;5041176;28;20061;-86
2021/12/08 15:34:19;;;;;;;11.95;3.13;;;8.40;99.90;;;;;;5034633;28;20052;-88
2021/12/08 15:36:55;;;;;;;;;;;8.30;99.90;;;;;;5058827;28;20049;-88
2021/12/08 15:39:36;;;;;;;12.07;3.70;;;8.30;99.90;;;;;;5040288;28;19921;-88
2021/12/08 15:42:12;;;;;;;20.30;4.55;;;8.30;99.90;;;;;;5038206;28;20056;-86
2021/12/08 15:44:42;;;;;;;10.95;4.68;;;8.80;99.90;;;;;;5037576;28;20060;-90
2021/12/08 15:47:10;;;;;;;11.98;3.22;;;8.20;99.90;;;;;;5056375;28;20049;-86
2021/12/08 15:49:42;;;;;;;12.43;4.15;;;8.20;99.90;;;;;;5039171;28;20045;-86
2021/12/08 15:52:14;;;;;;;11.65;3.17;;;8.20;99.90;;;;;;5021741;28;20058;-85
2021/12/08 15:54:50;;;;;;;15.93;5.85;;;8.00;99.90;;;;;;5039466;28;20053;-89
2021/12/08 15:57:20;;;;;;;19.50;4.90;;;8.20;99.90;;;;;;5036641;28;20274;-86